Terminal Aerodrome Forecast
Issued by NWS

Current Version | Previous Version | Graphics & Text | Print | Product List | Glossary On
Versions: 1 2 3 4 5 6 7 8 9 10 11 12 13 14 15
180
FTUS41 KILN 110534
TAFLCK
TAF
KLCK 110534Z 1106/1206 27008KT P6SM BKN040
     FM111500 29010KT P6SM BKN025
     FM120200 29004KT P6SM SCT025 BKN120=

USA.gov is the U.S. government's official web portal to all federal, state and local government web resources and services.